createdAt,value
2023-10-07T00:00:27.990Z,2.90
2023-10-07T00:01:26.522Z,3.43
2023-10-07T00:02:19.914Z,3.17
2023-10-07T00:03:16.361Z,2.50
2023-10-07T00:04:10.783Z,2.83
2023-10-07T00:05:07.264Z,2.80
2023-10-07T00:06:02.071Z,2.73
2023-10-07T00:06:54.766Z,2.80
2023-10-07T00:07:50.161Z,2.60
2023-10-07T00:08:42.894Z,2.70
2023-10-07T00:09:36.181Z,2.43
2023-10-07T00:10:36.047Z,2.57
2023-10-07T00:11:29.245Z,2.93
2023-10-07T00:12:22.091Z,2.60
2023-10-07T00:13:20.777Z,2.53
2023-10-07T00:14:13.602Z,2.77
2023-10-07T00:15:12.710Z,2.53
2023-10-07T00:16:06.001Z,2.87
2023-10-07T00:16:59.155Z,2.70
2023-10-07T00:17:58.118Z,2.97
2023-10-07T00:18:50.878Z,2.30
2023-10-07T00:19:46.528Z,2.57
2023-10-07T00:20:42.377Z,2.97
2023-10-07T00:21:54.601Z,2.50
2023-10-07T00:22:50.787Z,3.03
2023-10-07T00:23:44.324Z,2.73
2023-10-07T00:24:44.454Z,2.83
2023-10-07T00:25:40.176Z,2.70
2023-10-07T00:26:35.662Z,2.60
2023-10-07T00:27:30.550Z,2.60
2023-10-07T00:28:30.032Z,2.90
2023-10-07T00:29:25.995Z,3.03
2023-10-07T00:30:22.445Z,2.50
2023-10-07T00:31:24.304Z,2.77
2023-10-07T00:32:17.392Z,2.30
2023-10-07T00:33:12.832Z,2.50
2023-10-07T00:34:07.639Z,2.23
2023-10-07T00:35:05.966Z,2.43
2023-10-07T00:36:06.285Z,2.13
2023-10-07T00:37:02.391Z,2.43
2023-10-07T00:38:00.241Z,2.10
2023-10-07T00:38:55.828Z,2.40
2023-10-07T00:39:48.537Z,2.63
2023-10-07T00:40:50.007Z,2.33
2023-10-07T00:41:47.285Z,2.13
2023-10-07T00:42:43.347Z,2.50
2023-10-07T00:43:39.493Z,2.30
2023-10-07T00:44:34.363Z,2.40
2023-10-07T00:45:27.614Z,2.40
2023-10-07T00:46:30.274Z,2.30
2023-10-07T00:47:23.329Z,2.20
2023-10-07T00:48:18.916Z,2.60
2023-10-07T00:49:16.445Z,2.33
2023-10-07T00:50:13.365Z,2.50
2023-10-07T00:51:12.719Z,2.20
2023-10-07T00:52:07.116Z,2.30
2023-10-07T00:53:07.430Z,2.43
2023-10-07T00:54:02.289Z,2.67
2023-10-07T00:54:59.252Z,2.63
2023-10-07T00:55:57.318Z,2.20
2023-10-07T00:56:55.518Z,2.83
2023-10-07T00:58:05.004Z,2.40
2023-10-07T00:58:57.841Z,2.20
2023-10-07T00:59:52.719Z,2.13
2023-10-07T01:00:51.316Z,2.40
2023-10-07T01:01:48.487Z,2.33
2023-10-07T01:02:42.380Z,2.33
2023-10-07T01:03:49.437Z,2.67
2023-10-07T01:04:42.475Z,2.47
2023-10-07T01:05:37.145Z,2.20
2023-10-07T01:06:33.927Z,2.37
2023-10-07T01:07:26.924Z,2.37
2023-10-07T01:08:21.442Z,2.37
2023-10-07T01:09:23.697Z,2.20
2023-10-07T01:10:16.428Z,2.13
2023-10-07T01:11:21.003Z,2.53
2023-10-07T01:12:19.426Z,2.40
2023-10-07T01:13:28.018Z,2.37
2023-10-07T01:14:23.354Z,2.20
2023-10-07T01:15:23.797Z,2.50
2023-10-07T01:16:28.480Z,2.57
2023-10-07T01:17:32.394Z,2.53
2023-10-07T01:18:25.960Z,2.30
2023-10-07T01:19:29.818Z,2.40
2023-10-07T01:20:23.957Z,2.27
2023-10-07T01:21:32.463Z,2.60
2023-10-07T01:22:37.025Z,2.40
2023-10-07T01:23:34.287Z,2.60
2023-10-07T01:24:45.770Z,2.53
2023-10-07T01:25:45.918Z,2.43
2023-10-07T01:26:42.689Z,2.57
2023-10-07T01:27:47.308Z,2.57
2023-10-07T01:28:41.769Z,2.70
2023-10-07T01:29:36.025Z,2.53
2023-10-07T01:30:35.649Z,2.60
2023-10-07T01:31:31.077Z,2.60
2023-10-07T01:32:24.045Z,3.40
2023-10-07T01:33:26.779Z,2.50
2023-10-07T01:34:20.772Z,3.40
2023-10-07T01:35:14.775Z,2.60
2023-10-07T01:36:15.450Z,2.60
2023-10-07T01:37:09.863Z,2.90
2023-10-07T01:38:11.219Z,2.67
2023-10-07T01:39:08.290Z,3.50
2023-10-07T01:40:00.986Z,2.77
2023-10-07T01:41:06.772Z,2.47
2023-10-07T01:42:06.801Z,2.50
2023-10-07T01:43:04.067Z,2.50
2023-10-07T01:44:00.925Z,2.60
2023-10-07T01:45:06.012Z,2.20
2023-10-07T01:45:59.605Z,3.07
2023-10-07T01:46:57.574Z,2.80
2023-10-07T01:47:56.404Z,2.80
2023-10-07T01:48:54.904Z,2.60
2023-10-07T01:49:54.829Z,2.50
2023-10-07T01:50:48.427Z,2.77
2023-10-07T01:51:46.197Z,2.60
2023-10-07T01:52:39.135Z,2.83
2023-10-07T01:53:34.785Z,2.37
2023-10-07T01:54:34.932Z,2.57
2023-10-07T01:55:29.041Z,2.57
2023-10-07T01:56:27.493Z,2.60
2023-10-07T01:57:20.841Z,2.80
2023-10-07T01:58:17.280Z,2.20
2023-10-07T01:59:19.548Z,2.60
2023-10-07T02:00:14.082Z,2.83
2023-10-07T02:01:10.004Z,2.80
2023-10-07T02:02:05.920Z,2.20
2023-10-07T02:03:03.166Z,2.50
2023-10-07T02:03:59.929Z,2.67
2023-10-07T02:04:56.178Z,2.97
2023-10-07T02:05:50.324Z,2.60
2023-10-07T02:06:52.759Z,2.87
2023-10-07T02:07:47.864Z,2.73
2023-10-07T02:08:45.800Z,2.37
2023-10-07T02:09:42.393Z,2.83
2023-10-07T02:10:35.159Z,2.17
2023-10-07T02:11:32.596Z,3.00
2023-10-07T02:12:32.944Z,2.70
2023-10-07T02:13:29.605Z,2.67
2023-10-07T02:14:25.764Z,2.17
2023-10-07T02:15:21.379Z,2.60
2023-10-07T02:16:17.008Z,2.43
2023-10-07T02:17:13.512Z,2.57
2023-10-07T02:18:12.930Z,2.80
2023-10-07T02:19:05.926Z,2.70
2023-10-07T02:20:21.348Z,2.63
2023-10-07T02:21:14.086Z,2.53
2023-10-07T02:22:09.049Z,2.50
2023-10-07T02:23:05.521Z,2.90
2023-10-07T02:24:06.818Z,2.77
2023-10-07T02:25:08.763Z,2.60
2023-10-07T02:26:01.551Z,2.47
2023-10-07T02:26:57.377Z,2.23
2023-10-07T02:27:50.375Z,2.10
2023-10-07T02:28:46.054Z,2.10
2023-10-07T02:29:41.631Z,2.17
2023-10-07T02:30:40.157Z,2.00
2023-10-07T02:31:44.347Z,2.10
2023-10-07T02:32:37.275Z,1.77
2023-10-07T02:33:30.189Z,2.00
2023-10-07T02:34:30.074Z,1.70
2023-10-07T02:35:22.950Z,2.20
2023-10-07T02:36:29.681Z,2.10
2023-10-07T02:37:27.522Z,2.40
2023-10-07T02:38:25.954Z,2.30
2023-10-07T02:39:25.753Z,2.40
2023-10-07T02:40:36.697Z,2.20
2023-10-07T02:41:32.980Z,3.07
2023-10-07T02:42:30.450Z,2.63
2023-10-07T02:43:23.286Z,2.43
2023-10-07T02:44:27.490Z,1.80
2023-10-07T02:45:30.127Z,2.53
2023-10-07T02:46:33.979Z,2.30
2023-10-07T02:47:27.754Z,2.60
2023-10-07T02:48:21.041Z,2.80
2023-10-07T02:49:16.417Z,2.50
2023-10-07T02:50:10.031Z,2.93
2023-10-07T02:51:10.526Z,2.93
2023-10-07T02:52:03.385Z,2.77
2023-10-07T02:52:56.274Z,3.33
2023-10-07T02:54:00.348Z,3.28
2023-10-07T02:55:14.831Z,3.20
2023-10-07T02:56:18.528Z,3.47
2023-10-07T02:57:23.780Z,3.13
2023-10-07T02:58:28.685Z,3.27
2023-10-07T02:59:29.630Z,3.97
2023-10-07T03:00:31.169Z,4.10
2023-10-07T03:01:27.956Z,3.73
2023-10-07T03:02:22.699Z,4.37
2023-10-07T03:03:30.396Z,4.13
2023-10-07T03:04:36.215Z,3.20
2023-10-07T03:05:31.158Z,3.20
2023-10-07T03:06:29.762Z,3.53
2023-10-07T03:07:22.481Z,3.20
2023-10-07T03:08:21.082Z,3.20
2023-10-07T03:09:19.977Z,3.20
2023-10-07T03:10:18.804Z,3.13
2023-10-07T03:11:14.542Z,2.63
2023-10-07T03:12:07.354Z,2.93
2023-10-07T03:13:00.103Z,2.90
2023-10-07T03:14:01.045Z,2.90
2023-10-07T03:14:53.796Z,3.90
2023-10-07T03:15:47.780Z,3.13
2023-10-07T03:17:01.238Z,2.92
2023-10-07T03:17:54.139Z,2.90
2023-10-07T03:18:50.457Z,3.87
2023-10-07T03:19:54.390Z,3.20
2023-10-07T03:20:48.301Z,3.30
2023-10-07T03:21:55.836Z,3.60
2023-10-07T03:23:03.470Z,3.80
2023-10-07T03:23:59.748Z,4.43
2023-10-07T03:25:01.058Z,4.17
2023-10-07T03:26:07.317Z,4.53
2023-10-07T03:27:12.564Z,4.30
2023-10-07T03:28:17.875Z,4.13
2023-10-07T03:29:25.856Z,3.63
2023-10-07T03:30:20.630Z,3.73
2023-10-07T03:31:19.752Z,3.50
2023-10-07T03:32:13.887Z,2.77
2023-10-07T03:33:10.409Z,3.20
2023-10-07T03:34:09.262Z,3.20
2023-10-07T03:35:02.598Z,3.40
2023-10-07T03:36:31.112Z,3.57
2023-10-07T03:37:26.966Z,4.33
2023-10-07T03:38:22.632Z,3.60
2023-10-07T03:39:24.808Z,3.47
2023-10-07T03:40:27.134Z,3.47
2023-10-07T03:41:26.473Z,3.60
2023-10-07T03:42:19.153Z,3.40
2023-10-07T03:43:14.472Z,3.20
2023-10-07T03:44:07.391Z,3.50
2023-10-07T03:45:02.886Z,3.77
2023-10-07T03:45:58.772Z,3.87
2023-10-07T03:46:56.266Z,4.57
2023-10-07T03:47:52.098Z,4.00
2023-10-07T03:48:54.806Z,4.10
2023-10-07T03:49:55.015Z,4.20
2023-10-07T03:50:49.791Z,4.20
2023-10-07T03:51:46.679Z,4.10
2023-10-07T03:52:39.427Z,3.33
2023-10-07T03:53:33.547Z,3.30
2023-10-07T03:54:30.992Z,3.07
2023-10-07T03:55:24.345Z,3.60
2023-10-07T03:56:22.018Z,2.90
2023-10-07T03:57:17.394Z,2.70
2023-10-07T03:58:20.810Z,3.33
2023-10-07T03:59:16.505Z,2.90
2023-10-07T04:00:14.835Z,3.03
2023-10-07T04:01:13.539Z,3.23
2023-10-07T04:02:31.118Z,2.53
2023-10-07T04:03:25.774Z,3.03
2023-10-07T04:04:23.762Z,3.50
2023-10-07T04:05:22.673Z,2.90
2023-10-07T04:06:20.368Z,3.17
2023-10-07T04:07:13.553Z,3.37
2023-10-07T04:08:12.168Z,3.30
2023-10-07T04:09:10.292Z,3.50
2023-10-07T04:10:14.686Z,3.60
2023-10-07T04:11:18.109Z,3.80
2023-10-07T04:12:15.758Z,3.77
2023-10-07T04:13:12.771Z,3.83
2023-10-07T04:14:21.132Z,4.10
2023-10-07T04:15:18.164Z,3.90
2023-10-07T04:16:23.954Z,3.97
2023-10-07T04:17:19.305Z,4.47
2023-10-07T04:18:14.165Z,4.20
2023-10-07T04:19:31.877Z,4.33
2023-10-07T04:20:29.843Z,4.40
2023-10-07T04:21:26.146Z,3.63
2023-10-07T04:22:18.900Z,3.77
2023-10-07T04:23:14.273Z,4.40
2023-10-07T04:24:11.386Z,4.20
2023-10-07T04:25:19.202Z,4.43
2023-10-07T04:26:12.370Z,3.95
2023-10-07T04:27:08.780Z,4.95
2023-10-07T04:28:08.563Z,5.00
2023-10-07T04:29:08.768Z,4.20
2023-10-07T04:30:11.616Z,4.40
2023-10-07T04:31:13.303Z,4.75
2023-10-07T04:32:14.780Z,4.33
2023-10-07T04:33:09.888Z,3.87
2023-10-07T04:34:12.713Z,4.20
2023-10-07T04:35:19.091Z,4.10
2023-10-07T04:36:15.280Z,3.20
2023-10-07T04:37:18.038Z,3.33
2023-10-07T04:38:20.317Z,3.30
2023-10-07T04:39:19.849Z,3.38
2023-10-07T04:40:27.592Z,3.70
2023-10-07T04:41:40.903Z,3.27
2023-10-07T04:43:03.293Z,3.50
2023-10-07T04:44:00.854Z,3.13
2023-10-07T04:45:14.116Z,3.80
2023-10-07T04:46:25.844Z,4.10
2023-10-07T04:47:36.622Z,3.07
2023-10-07T04:48:42.347Z,3.73
2023-10-07T04:49:58.075Z,3.63
2023-10-07T04:51:07.164Z,2.65
2023-10-07T04:51:59.977Z,3.07
2023-10-07T04:53:04.638Z,3.17
2023-10-07T04:53:59.208Z,3.43
2023-10-07T04:54:54.144Z,2.67
2023-10-07T04:55:46.890Z,3.50
2023-10-07T04:56:49.294Z,3.27
2023-10-07T04:57:58.108Z,2.83
2023-10-07T04:58:53.685Z,2.88
2023-10-07T04:59:49.606Z,3.08
2023-10-07T05:00:48.783Z,2.83
2023-10-07T05:01:43.796Z,3.73
2023-10-07T05:02:39.779Z,3.10
2023-10-07T05:03:35.422Z,3.60
2023-10-07T05:04:29.884Z,3.27
2023-10-07T05:05:26.850Z,3.40
2023-10-07T05:06:20.022Z,2.77
2023-10-07T05:07:16.020Z,3.17
2023-10-07T05:08:10.283Z,3.80
2023-10-07T05:09:04.763Z,3.73
2023-10-07T05:10:00.165Z,3.20
2023-10-07T05:10:54.378Z,3.60
2023-10-07T05:11:49.530Z,3.20
2023-10-07T05:12:44.890Z,3.70
2023-10-07T05:13:44.752Z,3.80
2023-10-07T05:14:37.714Z,3.53
2023-10-07T05:15:32.111Z,3.53
2023-10-07T05:16:30.248Z,3.60
2023-10-07T05:17:24.616Z,3.60
2023-10-07T05:18:18.840Z,2.85
2023-10-07T05:19:21.309Z,3.30
2023-10-07T05:20:28.471Z,3.20
2023-10-07T05:21:28.313Z,3.37
2023-10-07T05:22:21.030Z,3.07
2023-10-07T05:23:15.952Z,3.05
2023-10-07T05:24:13.522Z,3.00
2023-10-07T05:25:10.319Z,2.83
2023-10-07T05:26:10.935Z,3.23
2023-10-07T05:27:06.172Z,2.57
2023-10-07T05:27:59.318Z,2.87
2023-10-07T05:28:54.754Z,2.72
2023-10-07T05:29:48.202Z,3.23
2023-10-07T05:30:44.535Z,2.93
2023-10-07T05:31:44.310Z,3.37
2023-10-07T05:32:37.299Z,3.07
2023-10-07T05:33:35.624Z,2.90
2023-10-07T05:34:30.426Z,2.80
2023-10-07T05:35:31.304Z,2.70
2023-10-07T05:36:31.292Z,3.60
2023-10-07T05:37:26.783Z,3.10
2023-10-07T05:38:22.187Z,2.80
2023-10-07T05:39:16.536Z,2.90
2023-10-07T05:40:16.468Z,3.07
2023-10-07T05:41:14.137Z,3.40
2023-10-07T05:42:09.554Z,3.00
2023-10-07T05:43:02.273Z,3.25
2023-10-07T05:43:57.565Z,3.03
2023-10-07T05:44:50.266Z,2.60
2023-10-07T05:45:46.585Z,2.60
2023-10-07T05:46:43.656Z,2.78
2023-10-07T05:47:36.464Z,2.63
2023-10-07T05:48:32.200Z,2.90
2023-10-07T05:49:26.066Z,2.73
2023-10-07T05:50:23.681Z,2.77
2023-10-07T05:51:17.949Z,3.20
2023-10-07T05:52:10.743Z,3.57
2023-10-07T05:53:06.875Z,3.10
2023-10-07T05:54:00.369Z,2.90
2023-10-07T05:54:53.141Z,3.50
2023-10-07T05:55:49.464Z,3.47
2023-10-07T05:56:43.228Z,3.20
2023-10-07T05:57:38.568Z,2.72
2023-10-07T05:58:31.276Z,3.50
2023-10-07T05:59:24.036Z,3.45
2023-10-07T06:00:19.720Z,3.30
2023-10-07T06:01:13.667Z,3.92
2023-10-07T06:02:14.569Z,3.58
2023-10-07T06:03:13.513Z,3.43
2023-10-07T06:04:09.465Z,3.70
2023-10-07T06:05:07.117Z,3.70
2023-10-07T06:06:00.176Z,4.07
2023-10-07T06:06:54.228Z,4.13
2023-10-07T06:07:49.533Z,3.80
2023-10-07T06:08:43.311Z,4.47
2023-10-07T06:09:43.371Z,4.80
2023-10-07T06:10:38.246Z,4.77
2023-10-07T06:11:33.795Z,5.40
2023-10-07T06:12:26.512Z,4.80
2023-10-07T06:13:21.843Z,4.85
2023-10-07T06:14:14.851Z,4.50
2023-10-07T06:15:09.899Z,4.53
2023-10-07T06:16:08.916Z,4.90
2023-10-07T06:17:01.749Z,4.57
2023-10-07T06:17:57.553Z,4.90
2023-10-07T06:18:52.861Z,4.70
2023-10-07T06:19:45.581Z,4.60
2023-10-07T06:20:47.995Z,4.40
2023-10-07T06:21:45.826Z,5.20
2023-10-07T06:22:41.654Z,4.77
2023-10-07T06:23:37.625Z,5.00
2023-10-07T06:24:34.145Z,5.22
2023-10-07T06:25:32.614Z,4.75
2023-10-07T06:26:31.805Z,5.60
2023-10-07T06:27:24.524Z,6.70
2023-10-07T06:28:31.864Z,6.30
2023-10-07T06:29:31.450Z,5.93
2023-10-07T06:30:28.427Z,6.17
2023-10-07T06:31:24.322Z,5.73
2023-10-07T06:32:45.422Z,5.33
2023-10-07T06:33:41.991Z,5.47
2023-10-07T06:34:42.729Z,4.72
2023-10-07T06:35:39.115Z,4.37
2023-10-07T06:36:35.704Z,4.40
2023-10-07T06:37:31.042Z,3.73
2023-10-07T06:38:24.420Z,4.17
2023-10-07T06:39:28.705Z,4.33
2023-10-07T06:40:26.224Z,4.87
2023-10-07T06:41:21.978Z,4.37
2023-10-07T06:42:15.180Z,4.83
2023-10-07T06:43:15.797Z,4.57
2023-10-07T06:44:10.460Z,4.90
2023-10-07T06:45:10.155Z,4.63
2023-10-07T06:46:02.936Z,4.50
2023-10-07T06:46:57.536Z,5.10
2023-10-07T06:47:53.074Z,4.67
2023-10-07T06:48:49.831Z,5.03
2023-10-07T06:49:45.346Z,5.17
2023-10-07T06:50:42.846Z,4.63
2023-10-07T06:51:39.130Z,5.00
2023-10-07T06:52:31.941Z,5.07
2023-10-07T06:53:28.296Z,5.43
2023-10-07T06:54:21.090Z,4.95
2023-10-07T06:55:18.685Z,5.53
2023-10-07T06:56:22.647Z,5.17
2023-10-07T06:57:15.587Z,4.70
2023-10-07T06:58:11.126Z,5.80
2023-10-07T06:59:04.604Z,6.30
2023-10-07T06:59:57.300Z,5.37
2023-10-07T07:00:57.724Z,5.67
2023-10-07T07:01:53.471Z,5.47
2023-10-07T07:02:55.498Z,5.40
2023-10-07T07:03:53.489Z,5.40
2023-10-07T07:04:46.293Z,5.70
2023-10-07T07:05:42.514Z,5.30
2023-10-07T07:06:36.929Z,6.13
2023-10-07T07:07:29.610Z,5.43
2023-10-07T07:08:27.522Z,5.63
2023-10-07T07:09:35.216Z,5.50
2023-10-07T07:10:32.587Z,5.53
2023-10-07T07:11:31.169Z,5.97
2023-10-07T07:12:24.002Z,5.90
2023-10-07T07:13:24.186Z,6.60
2023-10-07T07:14:17.633Z,5.87
2023-10-07T07:15:11.335Z,6.40
2023-10-07T07:16:10.399Z,5.70
2023-10-07T07:17:31.209Z,6.07
2023-10-07T07:18:27.432Z,5.30
2023-10-07T07:19:24.547Z,3.70
2023-10-07T07:20:30.589Z,3.60
2023-10-07T07:21:36.221Z,2.93
2023-10-07T07:22:29.481Z,3.17
2023-10-07T07:23:23.626Z,2.77
2023-10-07T07:24:17.198Z,2.60
2023-10-07T07:25:12.324Z,2.60
2023-10-07T07:26:11.299Z,2.60
2023-10-07T07:27:04.214Z,2.00
2023-10-07T07:27:59.825Z,2.00
2023-10-07T07:28:58.564Z,1.90
2023-10-07T07:29:51.307Z,1.80
2023-10-07T07:30:44.512Z,1.80
2023-10-07T07:31:40.146Z,2.00
2023-10-07T07:32:34.469Z,1.80
2023-10-07T07:33:30.457Z,1.47
2023-10-07T07:34:28.829Z,1.63
2023-10-07T07:35:23.753Z,1.90
2023-10-07T07:36:39.189Z,1.73
2023-10-07T07:37:33.281Z,1.73
2023-10-07T07:38:31.418Z,1.80
2023-10-07T07:39:31.550Z,1.63
2023-10-07T07:40:37.195Z,1.63
2023-10-07T07:41:36.247Z,1.77
2023-10-07T07:42:33.443Z,1.60
2023-10-07T07:43:28.791Z,1.50
2023-10-07T07:44:33.628Z,1.83
2023-10-07T07:45:29.989Z,1.93
2023-10-07T07:46:28.244Z,1.37
2023-10-07T07:47:23.796Z,1.50
2023-10-07T07:48:18.139Z,1.43
2023-10-07T07:49:11.015Z,1.40
2023-10-07T07:50:10.676Z,1.20
2023-10-07T07:51:03.385Z,1.50
2023-10-07T07:51:56.102Z,1.43
2023-10-07T07:52:51.656Z,1.67
2023-10-07T07:53:44.448Z,1.87
2023-10-07T07:54:39.831Z,1.33
2023-10-07T07:55:33.460Z,1.47
2023-10-07T07:56:26.207Z,1.40
2023-10-07T07:57:24.269Z,1.73
2023-10-07T07:58:16.945Z,1.90
2023-10-07T07:59:19.278Z,1.73
2023-10-07T08:00:21.786Z,1.60
2023-10-07T08:01:19.567Z,1.73
2023-10-07T08:02:18.795Z,2.00
2023-10-07T08:03:12.017Z,2.40
2023-10-07T08:04:11.336Z,1.90
2023-10-07T08:05:10.642Z,2.50
2023-10-07T08:06:04.522Z,1.63
2023-10-07T08:07:05.481Z,3.30
2023-10-07T08:07:59.591Z,1.87
2023-10-07T08:08:56.173Z,1.97
2023-10-07T08:09:52.362Z,2.03
2023-10-07T08:10:45.944Z,1.70
2023-10-07T08:11:42.145Z,2.50
2023-10-07T08:12:37.641Z,2.50
2023-10-07T08:13:33.193Z,3.30
2023-10-07T08:14:26.349Z,3.10
2023-10-07T08:15:25.655Z,2.70
2023-10-07T08:16:19.903Z,2.80
2023-10-07T08:17:21.076Z,2.10
2023-10-07T08:18:14.863Z,2.60
2023-10-07T08:19:11.098Z,2.60
2023-10-07T08:20:11.547Z,2.87
2023-10-07T08:21:15.279Z,2.10
2023-10-07T08:22:19.622Z,2.27
2023-10-07T08:23:24.370Z,2.70
2023-10-07T08:24:17.080Z,2.43
2023-10-07T08:25:16.954Z,1.87
2023-10-07T08:26:13.427Z,2.07
2023-10-07T08:27:28.862Z,1.93
2023-10-07T08:28:25.326Z,1.83
2023-10-07T08:29:35.878Z,1.80
2023-10-07T08:30:39.022Z,1.90
2023-10-07T08:31:39.571Z,2.73
2023-10-07T08:32:39.161Z,2.87
2023-10-07T08:33:34.577Z,2.60
2023-10-07T08:34:37.515Z,2.27
2023-10-07T08:35:36.173Z,2.40
2023-10-07T08:36:31.663Z,2.23
2023-10-07T08:37:24.445Z,2.90
2023-10-07T08:38:31.288Z,2.60
2023-10-07T08:39:29.006Z,2.40
2023-10-07T08:40:27.745Z,2.30
2023-10-07T08:41:27.987Z,2.60
2023-10-07T08:42:26.484Z,2.27
2023-10-07T08:43:27.245Z,2.40
2023-10-07T08:44:22.984Z,2.40
2023-10-07T08:45:24.684Z,3.27
2023-10-07T08:46:17.966Z,1.93
2023-10-07T08:47:13.486Z,2.70
2023-10-07T08:48:10.619Z,3.00
2023-10-07T08:49:13.135Z,2.90
2023-10-07T08:50:09.846Z,2.87
2023-10-07T08:51:12.121Z,3.50
2023-10-07T08:52:11.108Z,3.03
2023-10-07T08:53:08.766Z,3.10
2023-10-07T08:54:12.988Z,3.10
2023-10-07T08:55:10.586Z,2.50
2023-10-07T08:56:05.654Z,3.13
2023-10-07T08:57:07.595Z,2.80
2023-10-07T08:58:05.253Z,2.87
2023-10-07T08:58:58.661Z,2.00
2023-10-07T08:59:54.241Z,2.80
2023-10-07T09:00:47.214Z,2.47
2023-10-07T09:01:40.297Z,2.30
2023-10-07T09:02:38.445Z,2.70
2023-10-07T09:03:31.376Z,3.30
2023-10-07T09:04:27.514Z,2.87
2023-10-07T09:05:22.234Z,2.30
2023-10-07T09:06:21.891Z,2.63
2023-10-07T09:07:14.605Z,3.50
2023-10-07T09:08:12.805Z,2.60
2023-10-07T09:09:08.314Z,2.60
2023-10-07T09:10:15.130Z,2.90
2023-10-07T09:11:08.447Z,3.23
2023-10-07T09:12:09.461Z,2.70
2023-10-07T09:13:06.731Z,2.70
2023-10-07T09:14:02.591Z,2.77
2023-10-07T09:14:59.019Z,2.53
2023-10-07T09:15:54.620Z,2.57
2023-10-07T09:16:51.024Z,2.27
2023-10-07T09:17:44.153Z,2.20
2023-10-07T09:18:43.274Z,3.10
2023-10-07T09:19:38.043Z,2.90
2023-10-07T09:20:31.631Z,3.20
2023-10-07T09:21:35.018Z,2.60
2023-10-07T09:22:35.092Z,2.90
2023-10-07T09:23:45.054Z,2.57
2023-10-07T09:24:42.907Z,3.40
2023-10-07T09:25:39.240Z,3.07
2023-10-07T09:26:34.602Z,3.20
2023-10-07T09:27:38.530Z,2.90
2023-10-07T09:28:39.477Z,3.83
2023-10-07T09:29:35.189Z,2.93
2023-10-07T09:30:39.821Z,4.33
2023-10-07T09:31:32.589Z,2.87
2023-10-07T09:32:33.785Z,3.50
2023-10-07T09:33:36.730Z,3.03
2023-10-07T09:34:43.724Z,3.40
2023-10-07T09:35:37.326Z,2.30
2023-10-07T09:36:41.708Z,2.63
2023-10-07T09:37:34.638Z,3.10
2023-10-07T09:38:34.718Z,2.30
2023-10-07T09:39:36.176Z,2.60
2023-10-07T09:40:44.374Z,2.60
2023-10-07T09:41:37.791Z,2.40
2023-10-07T09:42:49.327Z,1.90
2023-10-07T09:43:44.966Z,3.47
2023-10-07T09:44:39.451Z,2.57
2023-10-07T09:45:35.764Z,2.30
2023-10-07T09:47:26.172Z,2.90
2023-10-07T09:48:25.314Z,3.37
2023-10-07T09:49:20.580Z,3.10
2023-10-07T09:50:21.273Z,4.27
2023-10-07T09:51:24.316Z,3.70
2023-10-07T09:52:30.718Z,2.90
2023-10-07T09:53:37.889Z,3.63
2023-10-07T09:54:39.036Z,3.30
2023-10-07T09:55:50.957Z,3.10
2023-10-07T09:56:59.757Z,3.07
2023-10-07T09:58:07.544Z,3.80
2023-10-07T09:59:19.989Z,3.20
2023-10-07T10:00:39.545Z,3.70
2023-10-07T10:01:42.943Z,3.40
2023-10-07T10:02:53.406Z,3.50
2023-10-07T10:04:01.389Z,3.43
2023-10-07T10:05:07.093Z,3.80
2023-10-07T10:06:17.681Z,2.93
2023-10-07T10:07:35.333Z,3.30
2023-10-07T10:08:49.170Z,3.63
2023-10-07T10:10:02.006Z,3.00
2023-10-07T10:10:59.645Z,3.47
2023-10-07T10:12:16.976Z,2.30
2023-10-07T10:13:30.131Z,2.13
2023-10-07T10:14:41.443Z,2.63
2023-10-07T10:15:50.270Z,2.50
2023-10-07T10:16:48.647Z,1.90
2023-10-07T10:17:50.179Z,2.07
2023-10-07T10:18:47.184Z,3.50
2023-10-07T10:19:46.412Z,3.47
2023-10-07T10:20:46.675Z,3.47
2023-10-07T10:21:39.471Z,3.40
2023-10-07T10:22:34.917Z,3.70
2023-10-07T10:23:34.446Z,2.50
2023-10-07T10:24:29.724Z,3.23
2023-10-07T10:25:38.228Z,2.70
2023-10-07T10:26:34.905Z,2.23
2023-10-07T10:27:30.911Z,3.13
2023-10-07T10:28:29.166Z,2.47
2023-10-07T10:29:27.004Z,2.10
2023-10-07T10:30:27.352Z,2.60
2023-10-07T10:31:22.915Z,1.87
2023-10-07T10:32:18.945Z,2.10
2023-10-07T10:33:21.385Z,2.80
2023-10-07T10:34:16.759Z,2.50
2023-10-07T10:35:12.543Z,2.20
2023-10-07T10:36:09.157Z,1.93
2023-10-07T10:37:07.312Z,1.83
2023-10-07T10:38:11.541Z,2.63
2023-10-07T10:39:06.757Z,2.60
2023-10-07T10:40:07.085Z,2.53
2023-10-07T10:41:05.700Z,2.57
2023-10-07T10:42:02.532Z,1.80
2023-10-07T10:42:57.862Z,2.37
2023-10-07T10:43:50.589Z,2.50
2023-10-07T10:44:49.383Z,2.50
2023-10-07T10:45:43.988Z,2.40
2023-10-07T10:46:47.442Z,3.40
2023-10-07T10:47:42.893Z,2.70
2023-10-07T10:48:36.155Z,2.73
2023-10-07T10:49:29.308Z,3.20
2023-10-07T10:50:25.642Z,2.90
2023-10-07T10:51:18.493Z,2.27
2023-10-07T10:52:11.718Z,2.40
2023-10-07T10:53:09.977Z,2.60
2023-10-07T10:54:02.756Z,2.23
2023-10-07T10:54:58.036Z,2.03
2023-10-07T10:55:51.556Z,2.30
2023-10-07T10:56:57.219Z,1.90
2023-10-07T10:57:51.949Z,1.70
2023-10-07T10:58:56.782Z,1.70
2023-10-07T10:59:49.577Z,1.73
2023-10-07T11:00:50.886Z,1.40
2023-10-07T11:01:45.614Z,2.30
2023-10-07T11:02:43.820Z,2.00
2023-10-07T11:03:38.948Z,1.40
2023-10-07T11:04:33.331Z,2.57
2023-10-07T11:05:28.841Z,2.77
2023-10-07T11:06:21.635Z,2.90
2023-10-07T11:07:17.247Z,2.20
2023-10-07T11:08:12.638Z,2.20
2023-10-07T11:09:05.649Z,2.30
2023-10-07T11:10:01.056Z,2.20
2023-10-07T11:10:54.439Z,2.00
2023-10-07T11:11:49.718Z,2.50
2023-10-07T11:12:47.752Z,2.10
2023-10-07T11:13:41.281Z,1.97
2023-10-07T11:14:37.098Z,2.50
2023-10-07T11:15:33.603Z,1.90
2023-10-07T11:16:27.781Z,1.43
2023-10-07T11:17:23.792Z,1.80
2023-10-07T11:18:16.809Z,1.70
2023-10-07T11:19:12.944Z,2.00
2023-10-07T11:20:10.653Z,2.20
2023-10-07T11:21:03.832Z,1.83
2023-10-07T11:21:56.970Z,1.73
2023-10-07T11:22:54.758Z,1.70
2023-10-07T11:23:51.732Z,1.80
2023-10-07T11:24:47.504Z,1.67
2023-10-07T11:25:42.649Z,2.20
2023-10-07T11:26:37.399Z,1.57
2023-10-07T11:27:33.920Z,1.70
2023-10-07T11:28:34.681Z,2.07
2023-10-07T11:29:31.546Z,2.40
2023-10-07T11:30:27.070Z,2.47
2023-10-07T11:31:28.963Z,2.87
2023-10-07T11:32:35.663Z,3.20
2023-10-07T11:33:29.034Z,2.37
2023-10-07T11:34:34.153Z,2.93
2023-10-07T11:35:29.207Z,2.50
2023-10-07T11:36:24.757Z,2.27
2023-10-07T11:37:23.348Z,2.40
2023-10-07T11:38:18.552Z,2.57
2023-10-07T11:39:18.270Z,1.90
2023-10-07T11:40:12.996Z,1.93
2023-10-07T11:41:11.929Z,2.13
2023-10-07T11:42:07.301Z,2.40
2023-10-07T11:43:06.127Z,2.00
2023-10-07T11:43:58.932Z,1.40
2023-10-07T11:44:56.412Z,2.53
2023-10-07T11:45:52.580Z,2.10
2023-10-07T11:46:46.802Z,1.87
2023-10-07T11:47:41.017Z,1.63
2023-10-07T11:48:37.451Z,2.30
2023-10-07T11:49:30.138Z,2.40
2023-10-07T11:50:28.743Z,1.87
2023-10-07T11:51:21.576Z,2.07
2023-10-07T11:52:20.506Z,2.07
2023-10-07T11:53:13.245Z,2.10
2023-10-07T11:54:06.936Z,1.60
2023-10-07T11:55:08.702Z,1.60
2023-10-07T11:56:01.446Z,1.70
2023-10-07T11:56:54.185Z,2.10
2023-10-07T11:57:49.585Z,1.53
2023-10-07T11:58:43.431Z,1.70
2023-10-07T11:59:37.291Z,1.80
2023-10-07T12:00:35.908Z,1.90
2023-10-07T12:01:28.888Z,1.90
2023-10-07T12:02:24.264Z,2.00
2023-10-07T12:03:18.883Z,1.80
2023-10-07T12:04:12.627Z,2.00
2023-10-07T12:05:11.758Z,2.30
2023-10-07T12:06:06.663Z,1.80
2023-10-07T12:07:01.982Z,1.73
2023-10-07T12:07:56.382Z,2.00
2023-10-07T12:08:51.795Z,1.70
2023-10-07T12:09:48.685Z,1.77
2023-10-07T12:10:44.767Z,1.73
2023-10-07T12:11:40.854Z,1.53
2023-10-07T12:12:34.116Z,1.63
2023-10-07T12:13:29.859Z,1.40
2023-10-07T12:14:24.680Z,1.60
2023-10-07T12:15:20.263Z,2.13
2023-10-07T12:16:13.817Z,1.90
2023-10-07T12:17:06.716Z,2.30
2023-10-07T12:18:03.721Z,2.50
2023-10-07T12:18:56.546Z,2.90
2023-10-07T12:19:49.386Z,2.80
2023-10-07T12:20:44.692Z,2.37
2023-10-07T12:21:38.901Z,2.10
2023-10-07T12:22:37.003Z,1.97
2023-10-07T12:23:29.902Z,1.70
2023-10-07T12:24:25.541Z,2.10
2023-10-07T12:25:18.554Z,1.70
2023-10-07T12:26:18.060Z,1.80
2023-10-07T12:27:12.245Z,1.60
2023-10-07T12:28:09.912Z,1.47
2023-10-07T12:29:02.898Z,2.13
2023-10-07T12:29:59.259Z,1.90
2023-10-07T12:30:53.509Z,2.10
2023-10-07T12:31:46.576Z,1.10
2023-10-07T12:32:41.997Z,1.23
2023-10-07T12:33:37.223Z,2.20
2023-10-07T12:34:33.058Z,1.60
2023-10-07T12:35:25.999Z,1.73
2023-10-07T12:36:21.527Z,2.17
2023-10-07T12:37:16.802Z,2.33
2023-10-07T12:38:11.036Z,2.20
2023-10-07T12:39:11.841Z,2.30
2023-10-07T12:40:12.452Z,1.70
2023-10-07T12:41:08.476Z,1.73
2023-10-07T12:42:06.517Z,2.27
2023-10-07T12:42:59.381Z,1.57
2023-10-07T12:43:52.176Z,2.23
2023-10-07T12:44:47.713Z,1.70
2023-10-07T12:45:43.391Z,1.90
2023-10-07T12:46:41.142Z,2.30
2023-10-07T12:47:34.466Z,1.30
2023-10-07T12:48:27.220Z,1.63
2023-10-07T12:49:23.956Z,1.43
2023-10-07T12:50:21.885Z,1.47
2023-10-07T12:51:19.155Z,1.40
2023-10-07T12:52:12.482Z,1.90